createdAt,value
2017-09-19T00:00:57.687Z,12.50
2017-09-19T00:03:25.116Z,12.50
2017-09-19T00:05:53.023Z,12.40
2017-09-19T00:08:20.453Z,12.40
2017-09-19T00:10:48.359Z,12.30
2017-09-19T00:13:15.820Z,12.30
2017-09-19T00:15:43.284Z,12.30
2017-09-19T00:18:10.710Z,12.30
2017-09-19T00:20:38.613Z,12.20
2017-09-19T00:23:06.032Z,12.20
2017-09-19T00:25:34.039Z,12.20
2017-09-19T00:28:01.467Z,12.20
2017-09-19T00:30:29.289Z,12.10
2017-09-19T00:32:56.951Z,12.10
2017-09-19T00:35:24.377Z,12.10
2017-09-19T00:37:52.192Z,12.10
2017-09-19T00:40:19.635Z,12.10
2017-09-19T00:42:47.103Z,12.10
2017-09-19T00:45:14.537Z,12.10
2017-09-19T00:47:42.381Z,12.10
2017-09-19T00:50:09.918Z,12.10
2017-09-19T00:52:37.762Z,12.10
2017-09-19T00:55:05.277Z,12.10
2017-09-19T00:57:32.757Z,12.10
2017-09-19T01:00:00.291Z,12.00
2017-09-19T01:02:28.580Z,12.10
2017-09-19T01:04:56.017Z,12.10
2017-09-19T01:07:23.489Z,12.10
2017-09-19T01:09:51.082Z,12.10
2017-09-19T01:12:19.891Z,12.10
2017-09-19T01:14:47.724Z,12.10
2017-09-19T01:17:15.206Z,12.10
2017-09-19T01:19:42.886Z,12.10
2017-09-19T01:22:10.759Z,12.10
2017-09-19T01:24:38.605Z,12.10
2017-09-19T01:27:06.050Z,12.10
2017-09-19T01:29:33.500Z,12.10
2017-09-19T01:32:00.918Z,12.10
2017-09-19T01:34:28.391Z,12.20
2017-09-19T01:36:55.838Z,12.20
2017-09-19T01:39:23.279Z,12.20
2017-09-19T01:41:50.901Z,12.20
2017-09-19T01:44:18.380Z,12.20
2017-09-19T01:46:45.866Z,12.20
2017-09-19T01:49:13.418Z,12.20
2017-09-19T01:51:40.945Z,12.20
2017-09-19T01:54:09.583Z,12.20
2017-09-19T01:56:37.076Z,12.20
2017-09-19T01:59:04.925Z,12.20
2017-09-19T02:01:32.360Z,12.10
2017-09-19T02:03:59.806Z,12.10
2017-09-19T02:06:27.297Z,12.10
2017-09-19T02:08:54.747Z,12.10
2017-09-19T02:11:22.224Z,12.10
2017-09-19T02:13:49.891Z,12.20
2017-09-19T02:16:17.330Z,12.10
2017-09-19T02:18:44.780Z,12.10
2017-09-19T02:21:13.516Z,12.10
2017-09-19T02:23:41.397Z,12.00
2017-09-19T02:26:09.236Z,12.10
2017-09-19T02:28:36.804Z,12.10
2017-09-19T02:31:04.264Z,12.00
2017-09-19T02:33:31.734Z,12.00
2017-09-19T02:35:59.375Z,12.00
2017-09-19T02:38:26.849Z,12.00
2017-09-19T02:40:54.343Z,12.00
2017-09-19T02:43:21.850Z,12.00
2017-09-19T02:45:49.288Z,11.90
2017-09-19T02:48:16.737Z,11.90
2017-09-19T02:50:44.851Z,11.90
2017-09-19T02:53:12.324Z,11.90
2017-09-19T02:55:39.792Z,11.80
2017-09-19T02:58:07.334Z,11.80
2017-09-19T03:00:34.807Z,11.80
2017-09-19T03:03:02.577Z,11.90
2017-09-19T03:05:30.052Z,11.90
2017-09-19T03:07:57.508Z,11.90
2017-09-19T03:10:24.943Z,11.90
2017-09-19T03:12:52.710Z,11.90
2017-09-19T03:15:20.153Z,11.90
2017-09-19T03:17:48.010Z,11.90
2017-09-19T03:20:15.488Z,11.90
2017-09-19T03:22:43.361Z,11.90
2017-09-19T03:25:11.231Z,12.00
2017-09-19T03:27:38.726Z,12.00
2017-09-19T03:30:06.224Z,12.00
2017-09-19T03:32:33.693Z,12.00
2017-09-19T03:35:02.741Z,12.00
2017-09-19T03:37:30.277Z,12.10
2017-09-19T03:39:58.115Z,12.10
2017-09-19T03:42:25.956Z,12.10
2017-09-19T03:44:53.414Z,12.10
2017-09-19T03:47:20.921Z,12.10
2017-09-19T03:49:48.393Z,12.10
2017-09-19T03:52:16.221Z,12.10
2017-09-19T03:54:43.675Z,12.10
2017-09-19T03:57:11.278Z,12.10
2017-09-19T03:59:38.710Z,12.10
2017-09-19T04:02:06.131Z,12.10
2017-09-19T04:04:33.761Z,12.00
2017-09-19T04:07:01.204Z,12.00
2017-09-19T04:09:28.763Z,12.00
2017-09-19T04:11:56.823Z,12.10
2017-09-19T04:14:24.262Z,12.10
2017-09-19T04:16:51.696Z,12.00
2017-09-19T04:19:19.627Z,12.10
2017-09-19T04:21:47.064Z,12.10
2017-09-19T04:24:14.515Z,12.10
2017-09-19T04:26:43.637Z,12.10
2017-09-19T04:29:11.090Z,12.10
2017-09-19T04:31:38.558Z,12.10
2017-09-19T04:34:06.030Z,12.10
2017-09-19T04:36:33.444Z,12.00
2017-09-19T04:39:01.293Z,11.90
2017-09-19T04:41:28.845Z,11.90
2017-09-19T04:43:56.285Z,12.00
2017-09-19T04:46:23.724Z,12.00
2017-09-19T04:48:51.188Z,12.00
2017-09-19T04:51:18.630Z,12.00
2017-09-19T04:53:46.934Z,12.00
2017-09-19T04:56:14.644Z,12.00
2017-09-19T04:58:42.093Z,12.00
2017-09-19T05:01:09.528Z,12.00
2017-09-19T05:03:37.837Z,12.00
2017-09-19T05:06:05.276Z,12.00
2017-09-19T05:08:32.700Z,11.90
2017-09-19T05:11:00.700Z,11.90
2017-09-19T05:13:28.144Z,11.90
2017-09-19T05:15:56.039Z,11.90
2017-09-19T05:18:25.056Z,11.90
2017-09-19T05:20:52.506Z,11.90
2017-09-19T05:23:19.938Z,11.90
2017-09-19T05:25:47.793Z,11.90
2017-09-19T05:28:15.607Z,12.00
2017-09-19T05:30:43.317Z,12.00
2017-09-19T05:33:10.795Z,12.00
2017-09-19T05:35:38.612Z,12.00
2017-09-19T05:38:06.073Z,12.00
2017-09-19T05:40:33.627Z,12.00
2017-09-19T05:43:01.067Z,12.10
2017-09-19T05:45:28.898Z,12.10
2017-09-19T05:47:56.341Z,12.10
2017-09-19T05:50:23.778Z,12.10
2017-09-19T05:52:51.229Z,12.10
2017-09-19T05:55:18.693Z,12.10
2017-09-19T05:57:46.120Z,12.10
2017-09-19T06:00:13.668Z,12.10
2017-09-19T06:02:41.114Z,12.20
2017-09-19T06:05:08.546Z,12.20
2017-09-19T06:07:35.978Z,12.20
2017-09-19T06:10:03.843Z,12.20
2017-09-19T06:12:31.283Z,12.20
2017-09-19T06:14:58.727Z,12.30
2017-09-19T06:17:26.343Z,12.30
2017-09-19T06:19:54.177Z,12.30
2017-09-19T06:22:22.135Z,12.40
2017-09-19T06:24:50.384Z,12.40
2017-09-19T06:27:17.839Z,12.40
2017-09-19T06:29:45.264Z,12.40
2017-09-19T06:32:12.756Z,12.40
2017-09-19T06:34:40.570Z,12.40
2017-09-19T06:37:07.986Z,12.40
2017-09-19T06:39:36.514Z,12.40
2017-09-19T06:42:03.946Z,12.40
2017-09-19T06:44:31.371Z,12.40
2017-09-19T06:46:59.308Z,12.50
2017-09-19T06:49:26.751Z,12.50
2017-09-19T06:51:54.202Z,12.60
2017-09-19T06:54:21.919Z,12.60
2017-09-19T06:56:49.337Z,12.60
2017-09-19T06:59:16.804Z,12.70
2017-09-19T07:01:44.569Z,12.70
2017-09-19T07:04:12.012Z,12.70
2017-09-19T07:06:39.850Z,12.80
2017-09-19T07:09:07.387Z,12.80
2017-09-19T07:11:34.813Z,12.80
2017-09-19T07:14:02.616Z,12.90
2017-09-19T07:16:30.056Z,12.90
2017-09-19T07:18:57.503Z,12.90
2017-09-19T07:21:25.108Z,13.00
2017-09-19T07:23:52.536Z,13.00
2017-09-19T07:26:20.022Z,13.00
2017-09-19T07:28:47.450Z,13.00
2017-09-19T07:31:15.295Z,13.10
2017-09-19T07:33:42.702Z,13.10
2017-09-19T07:36:10.121Z,13.10
2017-09-19T07:38:37.745Z,13.10
2017-09-19T07:41:05.194Z,13.20
2017-09-19T07:43:32.646Z,13.20
2017-09-19T07:46:00.095Z,13.30
2017-09-19T07:48:27.920Z,13.40
2017-09-19T07:50:55.402Z,13.40
2017-09-19T07:53:22.934Z,13.50
2017-09-19T07:55:50.368Z,13.50
2017-09-19T07:58:17.792Z,13.60
2017-09-19T08:00:45.230Z,13.50
2017-09-19T08:03:12.668Z,13.60
2017-09-19T08:05:40.380Z,13.60
2017-09-19T08:08:07.857Z,13.70
2017-09-19T08:10:35.697Z,13.80
2017-09-19T08:13:03.506Z,13.80
2017-09-19T08:15:31.248Z,13.80
2017-09-19T08:17:58.775Z,13.90
2017-09-19T08:20:26.221Z,13.90
2017-09-19T08:22:53.687Z,13.90
2017-09-19T08:25:21.127Z,13.90
2017-09-19T08:27:48.558Z,13.90
2017-09-19T08:30:16.056Z,13.90
2017-09-19T08:32:43.485Z,14.00
2017-09-19T08:35:10.928Z,14.00
2017-09-19T08:37:38.392Z,14.10
2017-09-19T08:40:05.860Z,14.20
2017-09-19T08:42:33.291Z,14.30
2017-09-19T08:45:01.878Z,14.30
2017-09-19T08:47:29.308Z,14.40
2017-09-19T08:49:56.739Z,14.50
2017-09-19T08:52:24.370Z,14.60
2017-09-19T08:54:51.806Z,14.60
2017-09-19T08:57:19.235Z,14.70
2017-09-19T08:59:47.908Z,14.70
2017-09-19T09:02:15.324Z,14.70
2017-09-19T09:04:42.812Z,14.70
2017-09-19T09:07:10.266Z,14.80
2017-09-19T09:09:37.708Z,14.80
2017-09-19T09:12:05.130Z,14.90
2017-09-19T09:14:33.969Z,14.80
2017-09-19T09:17:01.437Z,14.80
2017-09-19T09:19:28.859Z,14.80
2017-09-19T09:21:56.706Z,15.00
2017-09-19T09:24:24.145Z,15.00
2017-09-19T09:26:51.610Z,15.00
2017-09-19T09:29:19.078Z,15.10
2017-09-19T09:31:47.797Z,15.10
2017-09-19T09:34:15.247Z,15.20
2017-09-19T09:36:42.702Z,15.20
2017-09-19T09:39:10.163Z,15.30
2017-09-19T09:41:37.586Z,15.40
2017-09-19T09:44:05.042Z,15.40
2017-09-19T09:46:32.481Z,15.50
2017-09-19T09:49:00.301Z,15.70
2017-09-19T09:51:27.756Z,15.70
2017-09-19T09:53:55.216Z,15.80
2017-09-19T09:56:22.664Z,15.90
2017-09-19T09:58:50.142Z,16.00
2017-09-19T10:01:17.572Z,16.10
2017-09-19T10:03:45.015Z,16.10
2017-09-19T10:06:12.535Z,16.10
2017-09-19T10:08:39.956Z,16.20
2017-09-19T10:11:07.395Z,16.40
2017-09-19T10:13:35.259Z,16.90
2017-09-19T10:16:02.693Z,16.90
2017-09-19T10:18:30.134Z,17.30
2017-09-19T10:20:57.599Z,17.60
2017-09-19T10:23:25.046Z,17.80
2017-09-19T10:25:52.488Z,18.00
2017-09-19T10:28:19.966Z,18.00
2017-09-19T10:30:47.430Z,17.90
2017-09-19T10:33:14.961Z,17.80
2017-09-19T10:35:43.301Z,17.70
2017-09-19T10:38:10.715Z,17.70
2017-09-19T10:40:38.227Z,17.60
2017-09-19T10:43:05.686Z,17.50
2017-09-19T10:45:33.116Z,17.50
2017-09-19T10:48:00.547Z,17.40
2017-09-19T10:50:28.167Z,17.30
2017-09-19T10:52:55.606Z,17.30
2017-09-19T10:55:23.132Z,17.30
2017-09-19T10:57:50.587Z,17.20
2017-09-19T11:00:18.012Z,17.10
2017-09-19T11:02:45.456Z,16.90
2017-09-19T11:05:12.904Z,16.80
2017-09-19T11:07:40.739Z,16.50
2017-09-19T11:10:08.171Z,16.50
2017-09-19T11:12:35.972Z,16.40
2017-09-19T11:15:03.413Z,16.30
2017-09-19T11:17:30.858Z,16.10
2017-09-19T11:19:58.484Z,16.00
2017-09-19T11:22:26.360Z,15.70
2017-09-19T11:24:54.228Z,15.60
2017-09-19T11:27:22.099Z,15.50
2017-09-19T11:29:49.940Z,15.40
2017-09-19T11:32:17.374Z,15.40
2017-09-19T11:34:44.831Z,15.40
2017-09-19T11:37:12.281Z,15.30
2017-09-19T11:39:39.749Z,15.30
2017-09-19T11:42:07.243Z,15.30
2017-09-19T11:44:34.742Z,15.20
2017-09-19T11:47:02.570Z,15.20
2017-09-19T11:49:30.204Z,15.20
2017-09-19T11:51:57.639Z,15.20
2017-09-19T11:54:25.112Z,15.20
2017-09-19T11:56:52.950Z,15.20
2017-09-19T11:59:20.360Z,15.20
2017-09-19T12:01:47.783Z,15.20
2017-09-19T12:04:15.715Z,15.30
2017-09-19T12:06:43.139Z,15.30
2017-09-19T12:09:10.570Z,15.40
2017-09-19T12:11:38.009Z,15.40
2017-09-19T12:14:05.443Z,15.40
2017-09-19T12:16:32.866Z,15.40
2017-09-19T12:19:00.699Z,15.40
2017-09-19T12:21:28.134Z,15.40
2017-09-19T12:23:55.562Z,15.40
2017-09-19T12:26:23.416Z,15.30
2017-09-19T12:28:50.928Z,15.30
2017-09-19T12:31:18.341Z,15.30
2017-09-19T12:33:45.792Z,15.20
2017-09-19T12:49:09.999Z,15.30
2017-09-19T12:51:37.493Z,15.40
2017-09-19T12:54:04.900Z,15.40
2017-09-19T12:56:32.508Z,15.40
2017-09-19T12:59:00.752Z,15.40
2017-09-19T13:01:28.199Z,15.40
2017-09-19T13:03:56.077Z,15.40
2017-09-19T13:06:23.492Z,15.40
2017-09-19T13:08:50.910Z,15.40
2017-09-19T13:11:18.916Z,15.50
2017-09-19T13:13:46.340Z,15.50
2017-09-19T13:16:14.165Z,15.50
2017-09-19T13:18:41.596Z,15.50
2017-09-19T13:21:09.016Z,15.50
2017-09-19T13:23:36.502Z,15.50
2017-09-19T13:26:04.507Z,15.50
2017-09-19T13:28:31.971Z,15.50
2017-09-19T13:31:11.292Z,15.50
2017-09-19T13:33:57.576Z,15.50
2017-09-19T13:36:25.268Z,15.50
2017-09-19T13:38:52.736Z,15.50
2017-09-19T13:41:20.168Z,15.50
2017-09-19T13:43:48.259Z,15.50
2017-09-19T13:46:15.949Z,15.50
2017-09-19T13:48:43.360Z,15.40
2017-09-19T13:51:11.395Z,15.40
2017-09-19T13:53:38.812Z,15.40
2017-09-19T13:56:06.303Z,15.40
2017-09-19T13:58:33.948Z,15.40
2017-09-19T14:01:01.384Z,15.50
2017-09-19T14:03:29.292Z,15.60
2017-09-19T14:05:57.736Z,15.60
2017-09-19T14:08:25.139Z,15.70
2017-09-19T14:10:52.552Z,15.80
2017-09-19T14:13:20.041Z,15.80
2017-09-19T14:15:47.481Z,15.90
2017-09-19T14:18:14.936Z,15.80
2017-09-19T14:20:42.527Z,15.80
2017-09-19T14:23:09.939Z,15.70
2017-09-19T14:25:37.398Z,15.60
2017-09-19T14:28:05.526Z,15.50
2017-09-19T14:30:32.984Z,15.50
2017-09-19T14:33:00.399Z,15.40
2017-09-19T14:35:28.032Z,15.30
2017-09-19T14:37:55.459Z,15.30
2017-09-19T14:40:23.272Z,15.30
2017-09-19T14:42:50.725Z,15.30
2017-09-19T14:45:18.229Z,15.20
2017-09-19T14:47:45.647Z,15.10
2017-09-19T14:50:13.098Z,15.00
2017-09-19T14:52:40.516Z,14.90
2017-09-19T14:55:07.930Z,15.00
2017-09-19T14:57:35.597Z,15.00
2017-09-19T15:00:03.044Z,15.10
2017-09-19T15:02:30.481Z,15.20
2017-09-19T15:04:57.996Z,15.30
2017-09-19T15:07:25.444Z,15.30
2017-09-19T15:09:52.862Z,15.40
2017-09-19T15:12:20.300Z,15.40
2017-09-19T15:14:47.735Z,15.40
2017-09-19T15:17:15.172Z,15.30
2017-09-19T15:19:42.971Z,15.30
2017-09-19T15:22:10.388Z,15.30
2017-09-19T15:24:38.224Z,15.30
2017-09-19T15:27:06.125Z,15.30
2017-09-19T15:29:33.688Z,15.30
2017-09-19T15:32:01.533Z,15.20
2017-09-19T15:34:28.960Z,15.30
2017-09-19T15:36:56.396Z,15.20
2017-09-19T15:39:23.835Z,15.20
2017-09-19T15:41:51.362Z,15.30
2017-09-19T15:44:18.803Z,15.30
2017-09-19T15:46:46.248Z,15.30
2017-09-19T15:49:14.195Z,15.30
2017-09-19T15:51:41.615Z,15.30
2017-09-19T15:54:09.054Z,15.40
2017-09-19T15:56:36.478Z,15.40
2017-09-19T15:59:03.942Z,15.40
2017-09-19T16:01:31.662Z,15.40
2017-09-19T16:03:59.093Z,15.50
2017-09-19T16:06:26.573Z,15.50
2017-09-19T16:08:54.618Z,15.40
2017-09-19T16:11:22.101Z,15.40
2017-09-19T16:13:49.530Z,15.40
2017-09-19T16:16:17.193Z,15.40
2017-09-19T16:18:44.634Z,15.40
2017-09-19T16:21:12.052Z,15.30
2017-09-19T16:23:39.798Z,15.30
2017-09-19T16:26:07.811Z,15.30
2017-09-19T16:28:35.264Z,15.30
2017-09-19T16:31:02.716Z,15.30
2017-09-19T16:33:30.139Z,15.20
2017-09-19T16:35:57.599Z,15.20
2017-09-19T16:38:25.120Z,15.20
2017-09-19T16:40:52.571Z,15.20
2017-09-19T16:43:20.246Z,15.20
2017-09-19T16:45:47.704Z,15.20
2017-09-19T16:48:15.115Z,15.10
2017-09-19T16:50:42.583Z,15.10
2017-09-19T16:53:09.984Z,15.10
2017-09-19T16:55:38.365Z,15.10
2017-09-19T16:58:06.041Z,15.00
2017-09-19T17:00:33.461Z,15.00
2017-09-19T17:03:00.901Z,15.00
2017-09-19T17:05:28.352Z,15.00
2017-09-19T17:07:55.787Z,14.90
2017-09-19T17:10:23.222Z,14.90
2017-09-19T17:12:51.055Z,14.80
2017-09-19T17:15:18.525Z,14.80
2017-09-19T17:17:45.944Z,14.80
2017-09-19T17:20:13.385Z,14.80
2017-09-19T17:22:41.424Z,14.70
2017-09-19T17:25:08.849Z,14.70
2017-09-19T17:27:36.306Z,14.70
2017-09-19T17:30:03.763Z,14.70
2017-09-19T17:32:31.178Z,14.70
2017-09-19T17:34:58.610Z,14.70
2017-09-19T17:37:26.101Z,14.60
2017-09-19T17:39:53.507Z,14.60
2017-09-19T17:42:21.080Z,14.60
2017-09-19T17:44:48.517Z,14.60
2017-09-19T17:47:16.526Z,14.60
2017-09-19T17:49:43.931Z,14.60
2017-09-19T17:52:11.758Z,14.60
2017-09-19T17:54:39.411Z,14.60
2017-09-19T17:57:06.840Z,14.60
2017-09-19T17:59:34.650Z,14.40
2017-09-19T18:02:02.303Z,14.50
2017-09-19T18:04:29.735Z,14.40
2017-09-19T18:06:57.223Z,14.40
2017-09-19T18:09:24.852Z,14.30
2017-09-19T18:11:52.774Z,14.40
2017-09-19T18:14:20.189Z,14.40
2017-09-19T18:16:47.668Z,14.30
2017-09-19T18:19:15.490Z,14.30
2017-09-19T18:21:43.680Z,14.40
2017-09-19T18:24:11.713Z,14.30
2017-09-19T18:26:40.217Z,14.40
2017-09-19T18:29:08.733Z,14.40
2017-09-19T18:31:37.885Z,14.40
2017-09-19T18:34:06.883Z,14.30
2017-09-19T18:36:34.467Z,14.30
2017-09-19T18:39:02.215Z,14.30
2017-09-19T18:41:29.644Z,14.30
2017-09-19T18:43:57.464Z,14.30
2017-09-19T18:46:25.114Z,14.30
2017-09-19T18:48:52.553Z,14.30
2017-09-19T18:51:20.455Z,14.30
2017-09-19T18:53:47.944Z,14.30
2017-09-19T18:56:15.340Z,14.30
2017-09-19T18:58:43.174Z,14.20
2017-09-19T19:01:12.140Z,14.20
2017-09-19T19:03:39.593Z,14.20
2017-09-19T19:06:07.395Z,14.20
2017-09-19T19:08:35.032Z,14.20
2017-09-19T19:11:02.472Z,14.10
2017-09-19T19:13:29.900Z,14.10
2017-09-19T19:15:57.524Z,14.10
2017-09-19T19:18:24.956Z,14.00
2017-09-19T19:20:52.777Z,14.10
2017-09-19T19:23:20.230Z,14.10
2017-09-19T19:25:47.667Z,14.00
2017-09-19T19:28:15.121Z,14.00
2017-09-19T19:30:42.954Z,14.00
2017-09-19T19:33:10.389Z,13.90
2017-09-19T19:35:38.751Z,13.90
2017-09-19T19:38:06.212Z,13.90
2017-09-19T19:40:33.643Z,13.90
2017-09-19T19:43:01.468Z,13.90
2017-09-19T19:45:28.907Z,13.90
2017-09-19T19:47:56.341Z,13.90
2017-09-19T19:50:24.172Z,13.90
2017-09-19T19:52:51.620Z,13.90
2017-09-19T19:55:19.039Z,13.90
2017-09-19T19:57:46.468Z,13.90
2017-09-19T20:00:13.979Z,13.90
2017-09-19T20:02:41.401Z,14.00
2017-09-19T20:05:08.828Z,14.00
2017-09-19T20:07:36.279Z,14.00
2017-09-19T20:10:03.720Z,14.00
2017-09-19T20:12:31.157Z,14.00
2017-09-19T20:14:59.375Z,13.90
2017-09-19T20:17:26.819Z,13.90
2017-09-19T20:19:54.243Z,13.90
2017-09-19T20:22:21.679Z,13.90
2017-09-19T20:24:49.114Z,13.90
2017-09-19T20:27:17.357Z,13.90
2017-09-19T20:29:45.272Z,13.90
2017-09-19T20:32:12.702Z,13.90
2017-09-19T20:34:40.609Z,13.90
2017-09-19T20:37:08.382Z,13.90
2017-09-19T20:39:35.810Z,13.90
2017-09-19T20:42:03.704Z,13.90
2017-09-19T20:44:31.963Z,13.90
2017-09-19T20:46:59.389Z,13.90
2017-09-19T20:49:26.823Z,13.90
2017-09-19T20:51:54.290Z,13.90
2017-09-19T20:54:22.346Z,13.80
2017-09-19T20:56:49.772Z,13.80
2017-09-19T20:59:17.224Z,13.80
2017-09-19T21:01:44.741Z,13.90
2017-09-19T21:04:17.906Z,13.90
2017-09-19T21:06:51.392Z,13.80
2017-09-19T21:09:25.128Z,13.80
2017-09-19T21:11:58.304Z,13.80
2017-09-19T21:14:31.395Z,13.80
2017-09-19T21:17:05.047Z,13.80
2017-09-19T21:19:32.002Z,13.80
2017-09-19T21:21:59.626Z,13.90
2017-09-19T21:24:27.054Z,13.90
2017-09-19T21:26:54.970Z,13.90
2017-09-19T21:29:22.392Z,13.90
2017-09-19T21:31:50.199Z,13.80
2017-09-19T21:34:17.637Z,13.80
2017-09-19T21:36:45.067Z,13.80
2017-09-19T21:39:12.481Z,13.80
2017-09-19T21:41:39.935Z,13.90
2017-09-19T21:44:07.694Z,13.90
2017-09-19T21:46:35.114Z,13.80
2017-09-19T21:49:02.556Z,13.80
2017-09-19T21:51:29.997Z,13.80
2017-09-19T21:53:57.447Z,13.80
2017-09-19T21:56:24.875Z,13.80
2017-09-19T21:58:52.338Z,13.80
2017-09-19T22:01:19.750Z,13.80
2017-09-19T22:03:47.193Z,13.80
2017-09-19T22:06:15.360Z,13.90
2017-09-19T22:08:42.836Z,13.90
2017-09-19T22:11:10.483Z,13.90
2017-09-19T22:13:37.951Z,13.90
2017-09-19T22:16:05.429Z,13.80
2017-09-19T22:18:33.032Z,13.80
2017-09-19T22:21:00.472Z,13.80
2017-09-19T22:23:27.928Z,13.80
2017-09-19T22:25:55.391Z,13.80
2017-09-19T22:28:22.828Z,13.80
2017-09-19T22:30:50.271Z,13.80
2017-09-19T22:33:18.113Z,13.70
2017-09-19T22:35:45.636Z,13.70
2017-09-19T22:38:13.147Z,13.70
2017-09-19T22:40:40.579Z,13.60
2017-09-19T22:43:08.035Z,13.60
2017-09-19T22:45:35.464Z,13.60
2017-09-19T22:48:02.883Z,13.50
2017-09-19T22:50:30.414Z,13.50
2017-09-19T22:52:58.087Z,13.50
2017-09-19T22:55:26.099Z,13.50
2017-09-19T22:57:53.523Z,13.40
2017-09-19T23:00:21.083Z,13.50
2017-09-19T23:02:48.520Z,13.40
2017-09-19T23:05:15.996Z,13.40
2017-09-19T23:07:43.482Z,13.40
2017-09-19T23:10:10.917Z,13.30
2017-09-19T23:12:38.358Z,13.30
2017-09-19T23:15:06.196Z,13.30
2017-09-19T23:17:33.624Z,13.30
2017-09-19T23:20:01.070Z,13.30
2017-09-19T23:22:28.505Z,13.30
2017-09-19T23:24:56.407Z,13.30
2017-09-19T23:27:23.879Z,13.30
2017-09-19T23:29:51.353Z,13.30
2017-09-19T23:32:18.760Z,13.30
2017-09-19T23:34:46.767Z,13.30
2017-09-19T23:37:14.203Z,13.30
2017-09-19T23:39:42.027Z,13.20
2017-09-19T23:42:09.783Z,13.20
2017-09-19T23:44:37.228Z,13.20
2017-09-19T23:47:04.648Z,13.20
2017-09-19T23:49:32.585Z,13.20
2017-09-19T23:52:00.048Z,13.20
2017-09-19T23:54:27.474Z,13.30
2017-09-19T23:56:54.942Z,13.20
2017-09-19T23:59:22.377Z,13.20
